Time;durP1;ratioP1;P1;durP2;ratioP2;P2;SDS_P1;SDS_P2;PMS_P1;PMS_P2;Temp;Humidity;BMP_temperature;BMP_pressure;BME280_temperature;BME280_humidity;BME280_pressure;Samples;Min_cycle;Max_cycle;Signal;HPM_P1;HPM_P2
2024/02/28 00:02:10;;;;;;;38.03;17.03;;;;;;;-145.69;59.69;52234.47;5136490;27;20203;-82
2024/02/28 00:04:36;;;;;;;38.53;17.73;;;;;;;-145.69;59.60;52258.22;5123599;27;20221;-81
2024/02/28 00:07:03;;;;;;;32.77;15.97;;;;;;;-145.69;59.69;52224.56;5118954;27;20202;-82
2024/02/28 00:09:29;;;;;;;33.73;15.67;;;;;;;-145.69;59.62;52248.34;5115814;28;20200;-82
2024/02/28 00:11:55;;;;;;;31.43;15.60;;;;;;;-145.69;59.91;52250.31;5115513;28;20201;-81
2024/02/28 00:14:22;;;;;;;34.90;16.23;;;;;;;-145.69;59.79;52254.28;5115763;28;20549;-81
2024/02/28 00:16:50;;;;;;;36.10;16.50;;;;;;;-145.69;60.17;52250.31;5115674;28;20209;-81
2024/02/28 00:19:18;;;;;;;34.53;15.57;;;;;;;-145.69;60.39;52218.63;5115775;28;20597;-81
2024/02/28 00:21:44;;;;;;;35.57;15.77;;;;;;;-145.69;59.86;52230.50;5115711;28;20201;-82
2024/02/28 00:24:11;;;;;;;31.60;15.10;;;;;;;-145.69;60.31;52248.34;5115325;28;20221;-81
2024/02/28 00:26:41;;;;;;;38.23;16.03;;;;;;;-145.69;60.02;52250.31;5115176;28;20198;-82
2024/02/28 00:29:07;;;;;;;34.27;15.00;;;;;;;-145.69;60.29;52262.19;5115094;28;20205;-81
2024/02/28 00:31:34;;;;;;;32.47;14.83;;;;;;;-145.69;59.99;52248.34;5115370;28;20201;-81
2024/02/28 00:34:02;;;;;;;30.33;14.03;;;;;;;-145.69;59.58;52289.91;5115346;28;20220;-81
2024/02/28 00:36:28;;;;;;;27.57;13.57;;;;;;;-145.69;60.09;52266.16;5114854;28;20206;-81
2024/02/28 00:38:55;;;;;;;29.77;12.17;;;;;;;-145.69;60.96;52272.09;5114264;27;20197;-82
2024/02/28 00:41:21;;;;;;;29.17;13.83;;;;;;;-145.69;61.13;52270.13;5114977;28;20204;-81
2024/02/28 00:43:47;;;;;;;30.27;14.27;;;;;;;-145.69;62.06;52258.22;5114551;28;20226;-81
2024/02/28 00:46:14;;;;;;;35.10;15.17;;;;;;;-145.69;62.73;52258.22;5114435;28;20644;-82
2024/02/28 00:48:40;;;;;;;34.50;16.13;;;;;;;-145.69;62.12;52278.03;5114819;28;20604;-82
2024/02/28 00:51:08;;;;;;;32.17;15.47;;;;;;;-145.69;62.69;52280.00;5113427;28;20316;-81
2024/02/28 00:53:35;;;;;;;34.37;16.40;;;;;;;-145.69;63.04;52264.16;5115271;28;20280;-82
2024/02/28 00:56:01;;;;;;;38.10;16.57;;;;;;;-145.69;62.81;52242.38;5114668;28;20200;-82
2024/02/28 00:58:29;;;;;;;30.53;13.90;;;;;;;-145.69;62.59;52250.31;5114798;28;20496;-81
2024/02/28 01:00:56;;;;;;;33.10;14.80;;;;;;;-145.69;62.96;52301.81;5114865;28;20591;-82
2024/02/28 01:03:23;;;;;;;34.87;15.27;;;;;;;-145.69;63.33;52295.84;5114835;28;20261;-81
2024/02/28 01:05:49;;;;;;;32.00;14.17;;;;;;;-145.69;63.92;52254.28;5113607;28;20202;-82
2024/02/28 01:08:18;;;;;;;31.87;13.97;;;;;;;-145.69;63.51;52301.81;5114433;28;20198;-81
2024/02/28 01:10:44;;;;;;;30.97;14.60;;;;;;;-145.69;63.73;52287.94;5116868;27;20225;-82
2024/02/28 01:13:11;;;;;;;31.37;14.93;;;;;;;-145.69;63.82;52297.84;5114844;27;20202;-81
2024/02/28 01:15:37;;;;;;;33.70;14.60;;;;;;;-145.69;63.82;52280.00;5114425;28;20201;-82
2024/02/28 01:18:04;;;;;;;33.77;16.53;;;;;;;-145.69;64.09;52262.19;5113996;28;20197;-82
2024/02/28 01:20:30;;;;;;;36.33;16.67;;;;;;;-145.69;63.26;52240.41;5114502;28;20206;-82
2024/02/28 01:22:56;;;;;;;32.77;15.40;;;;;;;-145.69;63.19;52272.09;5114036;28;20209;-81
2024/02/28 01:25:24;;;;;;;35.33;16.17;;;;;;;-145.69;63.07;52262.19;5114106;28;20229;-82
2024/02/28 01:27:51;;;;;;;32.07;15.87;;;;;;;-145.69;62.06;52278.03;5114238;28;20208;-82
2024/02/28 01:30:17;;;;;;;30.83;14.97;;;;;;;-145.69;62.27;52289.91;5114469;28;20200;-81
2024/02/28 01:32:44;;;;;;;35.03;15.60;;;;;;;-145.69;62.12;52264.16;5113958;28;20279;-81
2024/02/28 01:35:11;;;;;;;32.47;14.93;;;;;;;-145.69;61.72;52252.28;5113987;28;20193;-81
2024/02/28 01:37:37;;;;;;;32.63;14.97;;;;;;;-145.69;61.76;52270.13;5114067;28;20213;-81
2024/02/28 01:40:05;;;;;;;30.83;14.47;;;;;;;-145.69;61.86;52270.13;5113400;28;20189;-81
2024/02/28 01:42:33;;;;;;;34.43;16.53;;;;;;;-145.69;61.73;52270.13;5113629;28;20426;-81
2024/02/28 01:44:59;;;;;;;30.93;14.97;;;;;;;-145.69;61.87;52256.25;5113916;28;21004;-81
2024/02/28 01:47:26;;;;;;;27.03;13.00;;;;;;;-145.69;61.99;52270.13;5113597;28;20197;-81
2024/02/28 01:49:54;;;;;;;33.57;15.13;;;;;;;-145.69;61.39;52264.16;5113815;28;20201;-81
2024/02/28 01:52:21;;;;;;;25.63;13.03;;;;;;;-145.69;61.67;52268.13;5113153;28;20225;-83
2024/02/28 01:54:47;;;;;;;27.00;12.07;;;;;;;-145.69;61.56;52283.97;5113358;28;20531;-82
2024/02/28 01:57:14;;;;;;;32.30;14.17;;;;;;;-145.69;61.21;52268.13;5114162;28;20200;-82
2024/02/28 01:59:43;;;;;;;31.23;14.57;;;;;;;-145.69;61.13;52289.91;5113628;28;20208;-82
2024/02/28 02:02:09;;;;;;;33.23;14.27;;;;;;;-145.69;60.79;52276.06;5113848;28;20205;-83
2024/02/28 02:04:36;;;;;;;28.30;13.17;;;;;;;-145.69;60.41;52258.22;5113467;28;20232;-82
2024/02/28 02:07:02;;;;;;;30.57;13.43;;;;;;;-145.69;60.41;52285.97;5113432;28;20193;-81
2024/02/28 02:09:29;;;;;;;25.00;12.37;;;;;;;-145.69;60.15;52254.28;5113515;28;20197;-81
2024/02/28 02:11:55;;;;;;;26.33;12.87;;;;;;;-145.69;59.16;52283.97;5113599;28;20216;-82
2024/02/28 02:14:21;;;;;;;25.77;12.83;;;;;;;-145.69;58.76;52254.28;5113081;28;20200;-82
2024/02/28 02:16:49;;;;;;;21.33;11.20;;;;;;;-145.69;58.63;52270.13;5126971;27;20203;-83
2024/02/28 02:19:16;;;;;;;27.60;12.43;;;;;;;-145.69;58.33;52276.06;5124702;27;20189;-81
2024/02/28 02:21:50;;;;;;;28.70;12.80;;;;;;;-145.69;58.23;52270.13;5113294;28;20229;-82
2024/02/28 02:24:17;;;;;;;26.43;13.27;;;;;;;-145.69;58.78;52285.97;5113476;28;20221;-82
2024/02/28 02:26:46;;;;;;;25.47;11.67;;;;;;;-145.69;58.81;52282.00;5113057;28;20211;-82
2024/02/28 02:29:12;;;;;;;26.37;12.27;;;;;;;-145.69;58.48;52282.00;5113251;28;20201;-82
2024/02/28 02:31:40;;;;;;;22.07;11.20;;;;;;;-145.69;58.71;52317.66;5113386;28;20659;-81
2024/02/28 02:34:07;;;;;;;21.43;11.40;;;;;;;-145.69;59.26;52276.06;5112489;28;20204;-82
2024/02/28 02:36:33;;;;;;;26.87;12.13;;;;;;;-145.69;59.23;52266.16;5113499;28;20198;-82
2024/02/28 02:39:00;;;;;;;22.60;11.07;;;;;;;-145.69;58.46;52274.06;5114922;27;20200;-81
2024/02/28 02:41:28;;;;;;;17.67;9.20;;;;;;;-145.69;58.88;52266.16;5113014;28;20193;-82
2024/02/28 02:43:54;;;;;;;19.97;10.13;;;;;;;-145.69;58.63;52268.13;5112504;28;20228;-81
2024/02/28 02:46:21;;;;;;;24.43;12.00;;;;;;;-145.69;58.90;52299.81;5112795;28;20201;-82
2024/02/28 02:48:47;;;;;;;20.27;10.33;;;;;;;-145.69;58.93;52278.03;5112637;28;20245;-81
2024/02/28 02:51:14;;;;;;;24.07;11.50;;;;;;;-145.69;59.37;52289.91;5112568;28;20618;-81
2024/02/28 02:53:40;;;;;;;23.87;11.80;;;;;;;-145.69;59.34;52285.97;5113014;28;20201;-83
2024/02/28 02:56:07;;;;;;;20.07;9.97;;;;;;;-145.69;59.45;52278.03;5112836;28;20560;-83
2024/02/28 02:58:35;;;;;;;20.90;9.17;;;;;;;-145.69;59.69;52303.78;5112433;28;20246;-82
2024/02/28 03:01:02;;;;;;;18.97;10.47;;;;;;;-145.69;59.60;52274.06;5112532;28;20224;-82
2024/02/28 03:03:28;;;;;;;18.37;9.27;;;;;;;-145.69;59.58;52280.00;5112977;28;20205;-82
2024/02/28 03:05:54;;;;;;;23.60;11.30;;;;;;;-145.69;59.79;52272.09;5112622;28;20235;-82
2024/02/28 03:08:21;;;;;;;26.33;12.37;;;;;;;-145.69;59.31;52295.84;5112919;28;20189;-82
2024/02/28 03:10:47;;;;;;;22.67;11.97;;;;;;;-145.69;59.63;52278.03;5112820;28;20319;-82
2024/02/28 03:13:14;;;;;;;23.37;11.00;;;;;;;-145.69;59.82;52283.97;5112931;28;20212;-82
2024/02/28 03:15:42;;;;;;;22.63;11.43;;;;;;;-145.69;59.47;52282.00;5112560;28;20276;-82
2024/02/28 03:18:08;;;;;;;24.70;11.87;;;;;;;-145.69;59.66;52242.38;5112488;28;20262;-82
2024/02/28 03:20:38;;;;;;;24.73;11.60;;;;;;;-145.69;59.52;52293.88;5112243;28;20193;-82
2024/02/28 03:23:05;;;;;;;20.80;10.90;;;;;;;-145.69;59.68;52276.06;5112881;28;20205;-82
2024/02/28 03:25:32;;;;;;;27.80;12.63;;;;;;;-145.69;59.96;52313.69;5112571;28;20594;-83
2024/02/28 03:27:59;;;;;;;23.83;12.03;;;;;;;-145.69;60.19;52276.06;5112516;28;20194;-82
2024/02/28 03:30:26;;;;;;;29.40;12.63;;;;;;;-145.69;60.34;52293.88;5116000;28;20201;-81
2024/02/28 03:32:54;;;;;;;27.00;12.50;;;;;;;-145.69;59.97;52274.06;5116818;28;20205;-81
2024/02/28 03:35:20;;;;;;;29.17;12.20;;;;;;;-145.69;60.23;52274.06;5116348;28;20202;-82
2024/02/28 03:37:46;;;;;;;28.27;12.73;;;;;;;-145.69;60.10;52321.59;5116446;28;20205;-82
2024/02/28 03:40:14;;;;;;;27.43;13.27;;;;;;;-145.69;60.38;52270.13;5116595;28;20201;-82
2024/02/28 03:42:41;;;;;;;27.07;12.27;;;;;;;-145.69;60.21;52272.09;5116046;28;20228;-82
2024/02/28 03:45:07;;;;;;;29.23;12.83;;;;;;;-145.69;60.21;52287.94;5116204;28;20228;-81
2024/02/28 03:47:34;;;;;;;24.77;12.97;;;;;;;-145.69;60.46;52278.03;5116270;28;20284;-83
2024/02/28 03:50:03;;;;;;;26.83;12.53;;;;;;;-145.69;60.26;52246.34;5116168;28;20319;-82
2024/02/28 03:52:30;;;;;;;26.03;12.73;;;;;;;-145.69;60.04;52287.94;5115741;28;20274;-81
2024/02/28 03:54:57;;;;;;;26.60;12.83;;;;;;;-145.69;60.13;52252.28;5116166;28;20202;-81
2024/02/28 03:57:24;;;;;;;28.63;13.33;;;;;;;-145.69;60.51;52250.31;5115909;28;20218;-81
2024/02/28 03:59:51;;;;;;;31.70;15.13;;;;;;;-145.69;60.46;52250.31;5116150;28;20197;-81
2024/02/28 04:02:17;;;;;;;34.13;14.53;;;;;;;-145.69;61.00;52278.03;5116138;28;20559;-81
2024/02/28 04:04:44;;;;;;;31.40;16.53;;;;;;;-145.69;60.74;52297.84;5115205;28;20679;-81
2024/02/28 04:07:12;;;;;;;36.60;15.93;;;;;;;-145.69;61.32;52313.69;5115838;28;20193;-81
2024/02/28 04:09:38;;;;;;;33.63;16.00;;;;;;;-145.69;61.27;52309.72;5115374;28;20683;-83
2024/02/28 04:12:05;;;;;;;34.97;15.20;;;;;;;-145.69;61.64;52291.91;5115291;28;20202;-83
2024/02/28 04:14:31;;;;;;;35.30;15.87;;;;;;;-145.69;61.64;52268.13;5115810;28;20209;-82
2024/02/28 04:16:58;;;;;;;36.80;16.80;;;;;;;-145.69;61.67;52291.91;5115714;28;20197;-82
2024/02/28 04:19:24;;;;;;;38.17;16.33;;;;;;;-145.69;62.25;52268.13;5115885;28;20795;-82
2024/02/28 04:21:51;;;;;;;36.87;16.63;;;;;;;-145.69;62.01;52297.84;5115628;28;20201;-81
2024/02/28 04:24:18;;;;;;;37.00;17.80;;;;;;;-145.69;62.89;52301.81;5115390;28;20202;-82
2024/02/28 04:26:45;;;;;;;37.80;16.87;;;;;;;-145.69;62.96;52250.31;5115033;28;20201;-82
2024/02/28 04:29:13;;;;;;;40.83;17.80;;;;;;;-145.69;63.33;52258.22;5115531;28;20193;-82
2024/02/28 04:31:40;;;;;;;38.23;17.00;;;;;;;-145.69;63.29;52299.81;5115181;28;20197;-82
2024/02/28 04:34:06;;;;;;;34.57;17.47;;;;;;;-145.69;63.34;52295.84;5115394;28;20193;-82
2024/02/28 04:36:33;;;;;;;38.00;16.03;;;;;;;-145.69;62.92;52274.06;5115346;28;20212;-81
2024/02/28 04:39:00;;;;;;;38.20;17.83;;;;;;;-145.69;63.35;52280.00;5115157;28;20647;-82
2024/02/28 04:41:28;;;;;;;34.60;14.70;;;;;;;-145.69;62.95;52256.25;5114671;28;20190;-82
2024/02/28 04:43:55;;;;;;;32.47;15.40;;;;;;;-145.69;63.17;52301.81;5115439;28;20204;-82
2024/02/28 04:46:21;;;;;;;46.17;17.43;;;;;;;-145.69;63.29;52317.66;5115152;28;20221;-81
2024/02/28 04:48:53;;;;;;;32.90;15.83;;;;;;;-145.69;62.74;52262.19;5113233;27;20205;-82
2024/02/28 04:51:20;;;;;;;36.17;16.43;;;;;;;-145.69;63.17;52285.97;5114962;28;20225;-82
2024/02/28 04:53:46;;;;;;;34.90;15.80;;;;;;;-145.69;62.96;52303.78;5114764;28;20205;-82
2024/02/28 04:56:13;;;;;;;28.53;14.87;;;;;;;-145.69;62.64;52278.03;5115231;28;20204;-81
2024/02/28 04:58:40;;;;;;;35.00;16.27;;;;;;;-145.69;62.71;52305.75;5114913;28;20716;-81
2024/02/28 05:01:07;;;;;;;31.80;15.43;;;;;;;-145.69;63.11;52305.75;5114688;28;20201;-81
2024/02/28 05:03:34;;;;;;;36.07;15.20;;;;;;;-145.69;62.76;52303.78;5114510;28;20198;-81
2024/02/28 05:06:00;;;;;;;33.17;14.33;;;;;;;-145.69;62.55;52305.75;5113853;28;20220;-81
2024/02/28 05:08:28;;;;;;;31.83;14.97;;;;;;;-145.69;62.88;52293.88;5114338;28;20198;-81
2024/02/28 05:10:55;;;;;;;32.43;15.73;;;;;;;-145.69;62.90;52309.72;5114492;28;20198;-82
2024/02/28 05:13:22;;;;;;;34.30;15.27;;;;;;;-145.69;63.15;52313.69;5114389;28;20197;-81
2024/02/28 05:15:49;;;;;;;35.20;16.50;;;;;;;-145.69;63.31;52282.00;5114564;28;20201;-81
2024/02/28 05:18:17;;;;;;;36.60;15.93;;;;;;;-145.69;62.76;52293.88;5114696;28;20208;-82
2024/02/28 05:20:43;;;;;;;35.03;15.67;;;;;;;-145.69;62.76;52289.91;5114392;28;20205;-82
2024/02/28 05:23:10;;;;;;;32.50;15.67;;;;;;;-145.69;62.85;52282.00;5114370;28;20656;-81
2024/02/28 05:25:36;;;;;;;33.73;15.63;;;;;;;-145.69;63.07;52291.91;5114051;28;20221;-81
2024/02/28 05:28:03;;;;;;;35.33;16.77;;;;;;;-145.69;63.06;52262.19;5114378;28;20193;-81
2024/02/28 05:30:29;;;;;;;30.20;14.30;;;;;;;-145.69;63.54;52323.59;5114019;28;20584;-82
2024/02/28 05:32:57;;;;;;;33.00;15.33;;;;;;;-145.69;62.90;52293.88;5114043;28;20201;-81
2024/02/28 05:35:23;;;;;;;38.07;16.90;;;;;;;-145.69;62.89;52278.03;5113887;28;20206;-81
2024/02/28 05:37:54;;;;;;;34.10;16.27;;;;;;;-145.69;63.11;52297.84;5114141;28;20201;-82
2024/02/28 05:40:20;;;;;;;38.40;20.33;;;;;;;-145.69;64.31;52268.13;5113309;28;20470;-81
2024/02/28 05:42:46;;;;;;;38.17;18.27;;;;;;;-145.69;63.69;52283.97;5114035;28;20246;-82
2024/02/28 05:45:13;;;;;;;39.70;18.07;;;;;;;-145.69;63.82;52325.56;5114226;28;20243;-82
2024/02/28 05:47:39;;;;;;;38.47;17.23;;;;;;;-145.69;63.87;52282.00;5113973;28;20270;-82
2024/02/28 05:50:09;;;;;;;37.13;17.93;;;;;;;-145.69;63.67;52282.00;5113761;28;20201;-82
2024/02/28 05:52:36;;;;;;;39.03;17.17;;;;;;;-145.69;63.59;52272.09;5113872;27;20248;-82
2024/02/28 05:55:02;;;;;;;37.73;17.03;;;;;;;-145.69;63.81;52307.75;5116763;27;20197;-82
2024/02/28 05:57:29;;;;;;;35.50;16.30;;;;;;;-145.69;63.70;52258.22;5113785;27;20598;-82
2024/02/28 05:59:55;;;;;;;38.67;17.00;;;;;;;-145.69;63.54;52283.97;5114168;27;20202;-82
2024/02/28 06:02:22;;;;;;;39.43;17.33;;;;;;;-145.69;63.31;52280.00;5113558;28;20214;-82
2024/02/28 06:04:48;;;;;;;35.53;16.67;;;;;;;-145.69;63.70;52313.69;5113773;28;20652;-81
2024/02/28 06:07:16;;;;;;;33.90;15.40;;;;;;;-145.69;63.49;52291.91;5113586;28;20329;-81
2024/02/28 06:09:42;;;;;;;34.33;15.83;;;;;;;-145.69;63.84;52315.66;5113463;28;20208;-82
2024/02/28 06:12:09;;;;;;;41.57;15.70;;;;;;;-145.69;63.97;52270.13;5114046;28;20243;-82
2024/02/28 06:14:35;;;;;;;35.07;16.07;;;;;;;-145.69;63.99;52299.81;5113243;28;20710;-82
2024/02/28 06:17:02;;;;;;;34.87;16.93;;;;;;;-145.69;63.69;52321.59;5113271;27;20697;-82
2024/02/28 06:19:28;;;;;;;43.97;15.70;;;;;;;-145.69;64.05;52282.00;5111779;28;20194;-82
2024/02/28 06:21:55;;;;;;;31.63;14.60;;;;;;;-145.69;63.81;52289.91;5113135;28;20200;-82
2024/02/28 06:24:22;;;;;;;35.17;15.67;;;;;;;-145.69;63.69;52297.84;5113552;28;20201;-82
2024/02/28 06:26:49;;;;;;;28.20;15.03;;;;;;;-145.69;63.92;52325.56;5113207;28;20225;-82
2024/02/28 06:29:16;;;;;;;33.80;15.33;;;;;;;-145.69;63.67;52309.72;5113247;28;20616;-82
2024/02/28 06:31:42;;;;;;;36.37;14.90;;;;;;;-145.69;63.52;52337.44;5113273;28;20201;-82
2024/02/28 06:34:08;;;;;;;29.87;14.93;;;;;;;-145.69;63.63;52313.69;5113644;28;20198;-82
2024/02/28 06:36:35;;;;;;;33.87;14.57;;;;;;;-145.69;63.17;52299.81;5112984;28;20196;-83
2024/02/28 06:39:01;;;;;;;33.33;15.13;;;;;;;-145.69;63.29;52301.81;5112722;27;20189;-82
2024/02/28 06:41:29;;;;;;;35.47;14.67;;;;;;;-145.69;63.11;52301.81;5112323;28;20197;-82
2024/02/28 06:43:56;;;;;;;36.97;15.43;;;;;;;-145.69;62.80;52301.81;5112766;28;20720;-82
2024/02/28 06:46:22;;;;;;;34.27;15.63;;;;;;;-145.69;62.49;52305.75;5112998;28;20225;-82
2024/02/28 06:48:49;;;;;;;33.90;15.30;;;;;;;-145.69;62.92;52287.94;5113161;28;20250;-82
2024/02/28 06:51:17;;;;;;;33.60;15.17;;;;;;;-145.69;63.16;52287.94;5112737;28;20687;-82
2024/02/28 06:53:43;;;;;;;35.77;15.83;;;;;;;-145.69;63.49;52278.03;5113025;28;20209;-82
2024/02/28 06:56:10;;;;;;;34.50;15.57;;;;;;;-145.69;63.36;52297.84;5112871;28;20201;-81
2024/02/28 06:58:37;;;;;;;38.40;16.53;;;;;;;-145.69;63.35;52317.66;5112583;28;20220;-82
2024/02/28 07:01:04;;;;;;;38.83;16.43;;;;;;;-145.69;63.46;52301.81;5119352;28;20219;-81
2024/02/28 07:03:31;;;;;;;34.73;16.40;;;;;;;-145.69;63.94;52305.75;5123777;28;20197;-81
2024/02/28 07:05:57;;;;;;;33.50;15.63;;;;;;;-145.69;63.16;52309.72;5116505;28;20299;-81
2024/02/28 07:08:24;;;;;;;32.77;15.47;;;;;;;-145.69;63.45;52301.81;5117245;28;20254;-82
2024/02/28 07:10:53;;;;;;;34.80;15.80;;;;;;;-145.69;63.14;52301.81;5116938;28;20629;-81
2024/02/28 07:13:20;;;;;;;33.80;15.33;;;;;;;-145.69;63.12;52262.19;5116854;28;20617;-81
2024/02/28 07:15:48;;;;;;;39.70;17.57;;;;;;;-145.69;63.29;52311.69;5116952;28;20198;-81
2024/02/28 07:18:15;;;;;;;40.67;17.50;;;;;;;-145.69;63.31;52285.97;5117238;28;20204;-81
2024/02/28 07:20:41;;;;;;;34.60;16.10;;;;;;;-145.69;63.59;52293.88;5117046;28;20194;-82
2024/02/28 07:23:08;;;;;;;35.03;15.57;;;;;;;-145.69;63.09;52280.00;5116288;28;20205;-82
2024/02/28 07:25:34;;;;;;;33.53;15.37;;;;;;;-145.69;63.19;52291.91;5115933;28;20217;-82
2024/02/28 07:28:01;;;;;;;38.43;16.27;;;;;;;-145.69;62.94;52285.97;5116296;28;20194;-82
2024/02/28 07:30:27;;;;;;;38.13;15.50;;;;;;;-145.69;62.45;52276.06;5116376;28;20200;-81
2024/02/28 07:32:56;;;;;;;35.73;16.17;;;;;;;-145.69;62.30;52272.09;5116643;28;20648;-82
2024/02/28 07:35:24;;;;;;;34.07;15.03;;;;;;;-145.69;62.12;52303.78;5116520;28;20245;-82
2024/02/28 07:37:50;;;;;;;32.20;15.57;;;;;;;-145.69;62.17;52293.88;5116252;28;20193;-82
2024/02/28 07:40:17;;;;;;;36.23;16.37;;;;;;;-145.69;62.35;52289.91;5116374;28;20208;-82
2024/02/28 07:42:43;;;;;;;37.17;15.20;;;;;;;-145.69;62.00;52289.91;5116150;28;20205;-81
2024/02/28 07:45:09;;;;;;;37.80;16.93;;;;;;;-145.69;61.87;52297.84;5116388;28;20200;-81
2024/02/28 07:47:36;;;;;;;38.43;16.57;;;;;;;-145.69;62.54;52305.75;5115983;27;20194;-81
2024/02/28 07:50:05;;;;;;;31.13;15.27;;;;;;;-145.69;62.64;52297.84;5116189;28;20744;-81
2024/02/28 07:52:34;;;;;;;35.03;16.00;;;;;;;-145.69;62.07;52297.84;5115561;28;20232;-81
2024/02/28 07:55:01;;;;;;;36.33;14.93;;;;;;;-145.69;62.22;52283.97;5116257;28;20701;-81
2024/02/28 07:57:28;;;;;;;40.73;16.30;;;;;;;-145.69;62.12;52321.59;5116179;28;20201;-82
2024/02/28 07:59:54;;;;;;;34.00;15.33;;;;;;;-145.69;61.89;52285.97;5116261;28;20213;-81
2024/02/28 08:02:21;;;;;;;34.50;15.43;;;;;;;-145.69;61.95;52280.00;5116324;28;20193;-81
2024/02/28 08:04:47;;;;;;;35.15;17.83;;;;;;;-145.69;62.68;52305.75;5115082;28;20837;-81
2024/02/28 08:07:16;;;;;;;35.13;15.87;;;;;;;-145.69;61.41;52289.91;5115253;28;20213;-83
2024/02/28 08:09:42;;;;;;;37.97;15.40;;;;;;;-145.69;61.37;52268.13;5115501;28;20197;-80
2024/02/28 08:12:09;;;;;;;33.17;14.80;;;;;;;-145.69;60.76;52266.16;5115140;28;20568;-82
2024/02/28 08:14:35;;;;;;;34.73;15.20;;;;;;;-145.69;60.59;52297.84;5115095;28;20272;-83
2024/02/28 08:17:04;;;;;;;34.60;14.80;;;;;;;-145.69;60.54;52278.03;5115646;28;20296;-82
2024/02/28 08:19:30;;;;;;;35.80;14.60;;;;;;;-145.69;60.16;52313.69;5115967;28;20211;-82
2024/02/28 08:21:57;;;;;;;37.10;16.43;;;;;;;-145.69;59.96;52240.41;5115471;28;20289;-81
2024/02/28 08:24:25;;;;;;;33.00;15.40;;;;;;;-145.69;59.66;52285.97;5115485;28;20544;-81
2024/02/28 08:26:51;;;;;;;34.93;15.70;;;;;;;-145.69;59.92;52268.13;5115300;28;20224;-82
2024/02/28 08:29:21;;;;;;;39.40;15.60;;;;;;;-145.69;58.56;52268.13;5115295;28;20262;-82
2024/02/28 08:31:46;;;;;;;31.97;15.47;;;;;;;-145.69;59.00;52272.09;5115223;28;20201;-81
2024/02/28 08:34:13;;;;;;;34.27;15.03;;;;;;;-145.69;57.17;52268.13;5115327;28;20217;-82
2024/02/28 08:36:39;;;;;;;31.90;15.50;;;;;;;-145.69;56.32;52266.16;5114724;27;20201;-81
2024/02/28 08:39:09;;;;;;;32.50;15.27;;;;;;;-145.69;56.20;52258.22;5116211;27;20529;-82
2024/02/28 08:41:37;;;;;;;33.70;14.93;;;;;;;-145.69;56.13;52299.81;5114977;28;20193;-81
2024/02/28 08:44:03;;;;;;;30.57;14.00;;;;;;;-145.69;55.74;52250.31;5114731;28;20185;-82
2024/02/28 08:46:30;;;;;;;33.80;14.93;;;;;;;-145.69;55.04;52258.22;5114977;28;20229;-82
2024/02/28 08:48:56;;;;;;;34.87;14.63;;;;;;;-145.69;54.94;52230.50;5115132;28;20651;-82
2024/02/28 08:51:23;;;;;;;34.87;14.53;;;;;;;-145.69;55.34;52262.19;5115450;27;20230;-82
2024/02/28 08:53:49;;;;;;;31.03;14.67;;;;;;;-145.69;55.49;52301.81;5115042;28;20201;-82
2024/02/28 08:56:16;;;;;;;32.73;15.03;;;;;;;-145.69;56.07;52254.28;5115062;28;20197;-83
2024/02/28 08:58:44;;;;;;;31.87;14.93;;;;;;;-145.69;56.55;52266.16;5115300;28;20250;-82
2024/02/28 09:01:15;;;;;;;35.40;16.23;;;;;;;-145.69;56.12;52262.19;5114909;28;20197;-83
2024/02/28 09:03:41;;;;;;;31.63;14.70;;;;;;;-145.69;56.75;52258.22;5115570;28;20589;-83
2024/02/28 09:06:08;;;;;;;32.17;14.93;;;;;;;-145.69;56.95;52270.13;5114959;28;20228;-82
2024/02/28 09:08:36;;;;;;;34.70;15.33;;;;;;;-145.69;57.04;52268.13;5114516;28;20190;-82
2024/02/28 09:11:05;;;;;;;30.53;15.53;;;;;;;-145.69;57.85;52278.03;5114580;28;20682;-82
2024/02/28 09:13:31;;;;;;;33.47;15.57;;;;;;;-145.69;58.19;52246.34;5114739;28;20254;-82
2024/02/28 09:15:59;;;;;;;36.53;16.20;;;;;;;-145.69;58.30;52252.28;5114406;28;20197;-81
2024/02/28 09:18:25;;;;;;;31.83;15.33;;;;;;;-145.69;58.80;52287.94;5114331;28;20197;-82
2024/02/28 09:20:52;;;;;;;32.67;15.53;;;;;;;-145.69;58.94;52293.88;5114641;28;20559;-82
2024/02/28 09:23:18;;;;;;;34.47;16.03;;;;;;;-145.69;59.44;52274.06;5114431;28;20202;-82
2024/02/28 09:25:45;;;;;;;35.83;15.97;;;;;;;-145.69;58.98;52236.44;5113805;28;20197;-83
2024/02/28 09:28:13;;;;;;;38.10;16.07;;;;;;;-145.69;58.99;52272.09;5114579;28;20661;-83
2024/02/28 09:30:40;;;;;;;32.43;15.43;;;;;;;-145.69;59.49;52293.88;5114395;28;20201;-83
2024/02/28 09:33:08;;;;;;;34.43;16.23;;;;;;;-145.69;59.54;52252.28;5114587;28;20202;-83
2024/02/28 09:35:36;;;;;;;32.37;14.80;;;;;;;-145.69;59.61;52297.84;5114349;28;20201;-82
2024/02/28 09:38:02;;;;;;;32.10;15.43;;;;;;;-145.69;59.36;52278.03;5114349;28;20201;-83
2024/02/28 09:40:29;;;;;;;35.70;14.93;;;;;;;-145.69;58.41;52282.00;5114226;28;20207;-82
2024/02/28 09:43:01;;;;;;;33.20;14.53;;;;;;;-145.69;58.54;52262.19;5114263;28;20209;-83
2024/02/28 09:45:30;;;;;;;33.23;15.20;;;;;;;-145.69;58.11;52262.19;5113169;28;20225;-81
2024/02/28 09:47:57;;;;;;;31.37;15.07;;;;;;;-145.69;57.20;52270.13;5110592;27;20225;-83
2024/02/28 09:50:26;;;;;;;28.20;14.17;;;;;;;-145.69;56.33;52274.06;5113651;28;20197;-82
2024/02/28 09:52:56;;;;;;;31.27;14.63;;;;;;;-145.69;55.40;52242.38;5113605;28;20319;-82
2024/02/28 09:55:23;;;;;;;30.73;14.13;;;;;;;-145.69;55.31;52262.19;5114101;28;20655;-83
2024/02/28 09:57:51;;;;;;;28.80;14.77;;;;;;;-145.69;54.88;52238.44;5113801;28;20197;-83
2024/02/28 10:00:20;;;;;;;30.57;14.07;;;;;;;-145.69;54.84;52262.19;5113719;28;20205;-83
2024/02/28 10:02:48;;;;;;;31.17;13.90;;;;;;;-145.69;54.46;52260.22;5113965;28;20205;-82
2024/02/28 10:05:16;;;;;;;31.57;14.57;;;;;;;-145.69;54.31;52238.44;5115399;28;20232;-83
2024/02/28 10:07:46;;;;;;;29.60;13.90;;;;;;;-145.69;53.54;52230.50;5114333;28;20228;-82
2024/02/28 10:10:12;;;;;;;29.93;14.07;;;;;;;-145.69;53.39;52266.16;5114198;28;20201;-82
2024/02/28 10:12:42;;;;;;;31.70;14.73;;;;;;;-145.69;53.55;52234.47;5114177;28;20201;-82
2024/02/28 10:15:10;;;;;;;33.57;15.03;;;;;;;-145.69;53.69;52272.09;5114563;28;20248;-83
2024/02/28 10:17:36;;;;;;;31.87;15.47;;;;;;;-145.69;54.03;52254.28;5113844;28;20676;-82
2024/02/28 10:20:04;;;;;;;33.03;14.80;;;;;;;-145.69;53.05;52272.09;5119643;27;20189;-82
2024/02/28 10:22:35;;;;;;;29.20;14.53;;;;;;;-145.69;52.84;52226.53;5134669;27;20205;-82
2024/02/28 10:25:03;;;;;;;31.07;14.33;;;;;;;-145.69;52.97;52268.13;5134831;27;20200;-82
2024/02/28 10:27:33;;;;;;;31.57;14.67;;;;;;;-145.69;52.46;52270.13;5134524;27;20235;-82
2024/02/28 10:29:59;;;;;;;33.85;17.25;;;;;;;-145.69;53.02;52270.13;5133086;27;20800;-83
2024/02/28 10:32:26;;;;;;;30.77;15.33;;;;;;;-145.69;52.38;52234.47;5133929;27;20211;-81
2024/02/28 10:34:54;;;;;;;28.70;13.53;;;;;;;-145.69;51.39;52242.38;5121074;27;20194;-82
2024/02/28 10:37:21;;;;;;;28.23;13.70;;;;;;;-145.69;50.97;52254.28;5112881;28;20201;-82
2024/02/28 10:39:52;;;;;;;26.67;13.53;;;;;;;-145.69;50.54;52224.56;5113161;28;20208;-81
2024/02/28 10:42:22;;;;;;;28.13;12.87;;;;;;;-145.69;49.80;52214.66;5113233;28;20193;-82
2024/02/28 10:44:52;;;;;;;25.13;12.43;;;;;;;-145.69;48.67;52184.97;5113093;28;20240;-82
2024/02/28 10:47:22;;;;;;;23.52;12.25;;;;;;;-145.69;47.93;52188.91;5113774;28;20232;-82
2024/02/28 10:49:51;;;;;;;24.83;12.82;;;;;;;-145.69;46.57;52177.03;5112826;28;20727;-82
2024/02/28 10:52:22;;;;;;;24.88;12.57;;;;;;;-145.69;45.51;52192.88;5113064;28;20225;-82
2024/02/28 10:54:55;;;;;;;25.27;12.05;;;;;;;-145.69;44.66;52210.72;5113343;28;20672;-83
2024/02/28 10:57:25;;;;;;;26.17;12.90;;;;;;;-145.69;44.63;52196.84;5113237;28;20193;-82
2024/02/28 10:59:52;;;;;;;25.30;12.05;;;;;;;-145.69;45.86;52155.25;5112102;28;20205;-82
2024/02/28 11:02:18;;;;;;;23.92;11.93;;;;;;;-145.69;46.06;52200.81;5113259;28;20236;-82